NCAR-RAP Real-Time Weather Data

Output produced by METARs form (26 May 2022  08:12 UTC)
found at http://weather.rap.ucar.edu/surface/
 
KRAP 260752Z AUTO 00000KT 10SM CLR 08/03 A2992 RMK AO2 SLP126 T00780033
KRAP 260652Z AUTO 00000KT 10SM CLR 09/03 A2994 RMK AO2 SLP128 T00890033 402110006
KRAP 260552Z AUTO 00000KT 10SM CLR 07/03 A2994 RMK AO2 SLP135 T00670028 10200 20056 50005
KRAP 260452Z AUTO 00000KT 10SM CLR 08/03 A2994 RMK AO2 SLP136 T00780028
KRAP 260352Z 00000KT 10SM CLR 09/03 A2994 RMK AO2 SLP135 T00940033
KRAP 260323Z 10003KT 10SM FEW002 12/04 A2993 RMK AO2 T01170039
KRAP 260252Z 08005KT 10SM CLR 12/06 A2992 RMK AO2 SLP130 T01170056 53002
KRAP 260152Z 05003KT 10SM OVC100 17/07 A2992 RMK AO2 SLP123 T01670067
KRAP 260052Z 07006KT 10SM CLR 19/05 A2992 RMK AO2 SLP123 T01890050
KRAP 252352Z VRB04KT 10SM FEW070 20/04 A2992 RMK AO2 SLP130 T02000044 10211 20178 56007
KRAP 252252Z 10007KT 10SM CLR 19/04 A2992 RMK AO2 SLP133 T01940039
KRAP 252152Z 09009KT 10SM CLR 20/05 A2993 RMK AO2 SLP134 T02000050
KRAP 252052Z 07005KT 10SM SCT065 20/04 A2994 RMK AO2 SLP136 T02000044 56015
KRAP 251952Z 07006KT 10SM CLR 19/04 A2996 RMK AO2 SLP139 T01940039
KRAP 251852Z 07006KT 10SM CLR 20/05 A2997 RMK AO2 SLP143 T02000050
KRAP 251752Z VRB05KT 10SM CLR 18/05 A2999 RMK AO2 SLP155 T01780050 10183 20028 58012
KRAP 251652Z VRB05KT 10SM CLR 17/06 A3001 RMK AO2 SLP161 T01670056
KRAP 251552Z 10SM CLR 15/06 A3003 RMK AO2 SLP168 T01500056
KRAP 251452Z 14006KT 10SM CLR 13/07 A3003 RMK AO2 SLP169 T01280067 51002
KRAP 251352Z 13003KT 10SM CLR 11/06 A3003 RMK AO2 SLP166 T01060061
KRAP 251252Z 00000KT 10SM CLR 09/05 A3003 RMK AO2 SLP166 T00890050
KRAP 251152Z AUTO 30006KT 10SM CLR 03/01 A3002 RMK AO2 SLP170 T00280011 10061 20006 55002
KRAP 251052Z AUTO 00000KT 10SM CLR 01/01 A3002 RMK AO2 SLP170 T00110006
KRAP 250952Z AUTO 00000KT 10SM CLR 03/02 A3003 RMK AO2 SLP170 T00330022
KRAP 250852Z AUTO 00000KT 10SM CLR 04/02 A3003 RMK AO2 SLP171 T00390022 55010
KRAP 250752Z AUTO 00000KT 10SM CLR 06/04 A3003 RMK AO2 SLP168 T00610039
KRAP 250652Z AUTO 11003KT 10SM CLR 06/04 A3005 RMK AO2 SLP176 T00610039 401831022
KRAP 250552Z AUTO 19003KT 10SM CLR 06/04 A3006 RMK AO2 SLP183 T00560044 10161 20050 50010
KRAP 250452Z AUTO 13003KT 10SM CLR 06/04 A3007 RMK AO2 SLP184 T00610039
KRAP 250352Z 11006KT 10SM CLR 07/04 A3006 RMK AO2 SLP179 T00720044
KRAP 250252Z 10008KT 10SM CLR 09/05 A3003 RMK AO2 SLP169 T00940050 53010
KRAP 250152Z 11010KT 10SM CLR 13/05 A3001 RMK AO2 SLP163 T01330050
KRAP 250052Z 13010KT 10SM FEW065 16/04 A3000 RMK AO2 SLP160 T01610039
KRAP 242352Z 09007KT 10SM FEW065 SCT080 17/03 A3000 RMK AO2 SLP165 T01720028 10183 20144 56002
KRAP 242252Z 07007KT 10SM FEW070 BKN090 17/02 A3000 RMK AO2 SLP166 T01720017
KRAP 242152Z 05005KT 10SM SCT070 SCT080 17/03 A3000 RMK AO2 SLP163 T01720033
KRAP 242052Z 05006G14KT 10SM SCT065 BKN100 17/03 A3000 RMK AO2 SLP164 T01720033 56011
KRAP 241952Z 05006KT 10SM SCT055 SCT065 BKN100 17/04 A3001 RMK AO2 SLP169 T01670039
KRAP 241852Z VRB05KT 10SM CLR 17/05 A3003 RMK AO2 SLP173 T01670050
KRAP 241752Z 05004KT 10SM SCT038 16/06 A3004 RMK AO2 SLP177 T01560056 10161 21011 53002
KRAP 241652Z 07008KT 10SM BKN035 15/07 A3003 RMK AO2 SLP175 T01500067
KRAP 241552Z 30004KT 10SM CLR 14/06 A3003 RMK AO2 SLP175 T01440056
KRAP 241452Z 32004KT 10SM CLR 13/05 A3003 RMK AO2 SLP175 T01280050 56002
KRAP 241352Z 32004KT 10SM CLR 10/06 A3004 RMK AO2 SLP177 T01000056
KRAP 241252Z 31005KT 10SM CLR 04/04 A3004 RMK AO2 SLP180 T00440044
KRAP 241242Z 32004KT 10SM CLR 03/03 A3004 RMK AO2 T00330028
KRAP 241219Z 00000KT 2SM HZ SCT100 00/00 A3004 RMK AO2 T00000000
KRAP 241207Z 00000KT 1/2SM FZFG VV001 M01/M01 A3005 RMK AO2 T10061006 RVRNO
KRAP 241152Z AUTO 35003KT 1/4SM FZFG VV001 M01/M01 A3004 RMK AO2 SLP189 I6000 T10111011 10028 21022 53003 RVRNO
KRAP 241148Z AUTO 01003KT 1/4SM FZFG VV001 M01/M01 A3004 RMK AO2 RVRNO
KRAP 241140Z AUTO 00000KT 3/4SM BR VV001 M02/M02 A3004 RMK AO2 T10171017 RVRNO
KRAP 241134Z AUTO 00000KT 2SM BR BKN001 M02/M02 A3004 RMK AO2 VIS 3/4V5 T10171017
KRAP 241127Z AUTO 00000KT 1 3/4SM BR FEW001 M02/M02 A3004 RMK AO2 VIS 3/4V5 T10171017
KRAP 241054Z AUTO 36003KT 3SM BR SCT001 M01/M01 A3003 RMK AO2 T10111011
KRAP 241052Z AUTO 34003KT 2SM BR BKN001 M01/M01 A3003 RMK AO2 SLP182 I1000 T10111011
KRAP 241049Z AUTO 00000KT 1SM BR VV001 M01/M01 A3002 RMK AO2 I1000 RVRNO
KRAP 241002Z AUTO 11003KT 1/4SM FG VV001 01/01 A3003 RMK AO2 T00060006 RVRNO
KRAP 240952Z AUTO 11003KT 1/2SM FG VV001 01/01 A3003 RMK AO2 SLP183 T00060006 RVRNO
KRAP 240948Z AUTO 00000KT 1/2SM FG VV001 01/01 A3003 RMK AO2 RVRNO
KRAP 240941Z AUTO 00000KT 1SM BR VV001 01/01 A3002 RMK AO2 VIS 1/2V5 T00060006 RVRNO
KRAP 240937Z AUTO 12004KT 2 1/2SM BR FEW001 01/01 A3003 RMK AO2 VIS 3/4V5 T00060006
KRAP 240852Z AUTO 00000KT 10SM CLR 01/01 A3002 RMK AO2 SLP182 T00110011 58006